sensor_id;sensor_type;location;lat;lon;timestamp;P1;durP1;ratioP1;P2;durP2;ratioP2
11422;SDS011;5768;51.476;7.210;2023-01-23T00:04:22;12.87;;;11.50;;
11422;SDS011;5768;51.476;7.210;2023-01-23T00:09:24;13.00;;;11.70;;
11422;SDS011;5768;51.476;7.210;2023-01-23T00:14:28;12.57;;;11.20;;
11422;SDS011;5768;51.476;7.210;2023-01-23T00:19:31;12.70;;;11.40;;
11422;SDS011;5768;51.476;7.210;2023-01-23T00:24:39;13.03;;;11.50;;
11422;SDS011;5768;51.476;7.210;2023-01-23T00:29:43;12.27;;;11.00;;
11422;SDS011;5768;51.476;7.210;2023-01-23T00:34:46;13.47;;;11.83;;
11422;SDS011;5768;51.476;7.210;2023-01-23T00:39:49;12.40;;;11.23;;
11422;SDS011;5768;51.476;7.210;2023-01-23T00:44:54;12.80;;;11.43;;
11422;SDS011;5768;51.476;7.210;2023-01-23T00:49:56;12.80;;;11.50;;
11422;SDS011;5768;51.476;7.210;2023-01-23T00:54:59;12.57;;;11.33;;
11422;SDS011;5768;51.476;7.210;2023-01-23T01:00:07;11.87;;;10.77;;
11422;SDS011;5768;51.476;7.210;2023-01-23T01:05:11;11.87;;;10.77;;
11422;SDS011;5768;51.476;7.210;2023-01-23T01:10:13;12.60;;;11.30;;
11422;SDS011;5768;51.476;7.210;2023-01-23T01:15:17;11.87;;;10.77;;
11422;SDS011;5768;51.476;7.210;2023-01-23T01:20:20;11.90;;;10.70;;
11422;SDS011;5768;51.476;7.210;2023-01-23T01:25:26;11.80;;;10.70;;
11422;SDS011;5768;51.476;7.210;2023-01-23T01:30:31;11.80;;;10.67;;
11422;SDS011;5768;51.476;7.210;2023-01-23T01:35:37;11.80;;;10.70;;
11422;SDS011;5768;51.476;7.210;2023-01-23T01:40:40;11.70;;;10.50;;
11422;SDS011;5768;51.476;7.210;2023-01-23T01:51:23;11.30;;;10.20;;
11422;SDS011;5768;51.476;7.210;2023-01-23T01:56:33;11.63;;;10.47;;
11422;SDS011;5768;51.476;7.210;2023-01-23T02:01:46;11.30;;;10.10;;
11422;SDS011;5768;51.476;7.210;2023-01-23T02:07:04;11.37;;;10.23;;
11422;SDS011;5768;51.476;7.210;2023-01-23T02:12:14;10.73;;;9.73;;
11422;SDS011;5768;51.476;7.210;2023-01-23T02:17:22;11.57;;;10.47;;
11422;SDS011;5768;51.476;7.210;2023-01-23T02:22:27;11.47;;;10.37;;
11422;SDS011;5768;51.476;7.210;2023-01-23T02:27:40;11.40;;;10.23;;
11422;SDS011;5768;51.476;7.210;2023-01-23T02:32:42;11.90;;;10.67;;
11422;SDS011;5768;51.476;7.210;2023-01-23T02:37:45;12.17;;;10.97;;
11422;SDS011;5768;51.476;7.210;2023-01-23T02:42:56;12.03;;;10.80;;
11422;SDS011;5768;51.476;7.210;2023-01-23T02:48:00;12.53;;;11.23;;
11422;SDS011;5768;51.476;7.210;2023-01-23T02:53:05;13.20;;;11.80;;
11422;SDS011;5768;51.476;7.210;2023-01-23T02:58:08;13.27;;;11.87;;
11422;SDS011;5768;51.476;7.210;2023-01-23T03:03:33;13.07;;;11.77;;
11422;SDS011;5768;51.476;7.210;2023-01-23T03:08:36;12.67;;;11.37;;
11422;SDS011;5768;51.476;7.210;2023-01-23T03:13:52;12.87;;;11.43;;
11422;SDS011;5768;51.476;7.210;2023-01-23T03:18:55;13.07;;;11.33;;
11422;SDS011;5768;51.476;7.210;2023-01-23T03:24:01;12.77;;;11.53;;
11422;SDS011;5768;51.476;7.210;2023-01-23T03:29:05;13.40;;;12.00;;
11422;SDS011;5768;51.476;7.210;2023-01-23T03:34:30;13.23;;;11.93;;
11422;SDS011;5768;51.476;7.210;2023-01-23T03:39:38;13.30;;;11.83;;
11422;SDS011;5768;51.476;7.210;2023-01-23T03:44:59;13.53;;;12.13;;
11422;SDS011;5768;51.476;7.210;2023-01-23T03:50:02;14.43;;;12.93;;
11422;SDS011;5768;51.476;7.210;2023-01-23T03:55:07;13.83;;;12.23;;
11422;SDS011;5768;51.476;7.210;2023-01-23T04:00:12;13.13;;;11.77;;
11422;SDS011;5768;51.476;7.210;2023-01-23T04:05:16;13.17;;;11.77;;
11422;SDS011;5768;51.476;7.210;2023-01-23T04:10:18;13.37;;;11.87;;
11422;SDS011;5768;51.476;7.210;2023-01-23T04:15:22;13.67;;;12.27;;
11422;SDS011;5768;51.476;7.210;2023-01-23T04:20:24;13.63;;;12.23;;
11422;SDS011;5768;51.476;7.210;2023-01-23T04:25:26;12.97;;;11.67;;
11422;SDS011;5768;51.476;7.210;2023-01-23T04:30:29;12.93;;;11.63;;
11422;SDS011;5768;51.476;7.210;2023-01-23T04:35:32;12.77;;;11.07;;
11422;SDS011;5768;51.476;7.210;2023-01-23T04:40:34;12.77;;;11.43;;
11422;SDS011;5768;51.476;7.210;2023-01-23T04:45:38;12.30;;;11.00;;
11422;SDS011;5768;51.476;7.210;2023-01-23T04:50:40;12.87;;;11.57;;
11422;SDS011;5768;51.476;7.210;2023-01-23T04:55:42;13.30;;;11.87;;
11422;SDS011;5768;51.476;7.210;2023-01-23T05:00:48;12.23;;;11.03;;
11422;SDS011;5768;51.476;7.210;2023-01-23T05:05:50;12.57;;;11.27;;
11422;SDS011;5768;51.476;7.210;2023-01-23T05:10:52;12.90;;;11.60;;
11422;SDS011;5768;51.476;7.210;2023-01-23T05:15:57;12.17;;;10.97;;
11422;SDS011;5768;51.476;7.210;2023-01-23T05:20:59;12.90;;;11.60;;
11422;SDS011;5768;51.476;7.210;2023-01-23T05:26:01;12.40;;;11.20;;
11422;SDS011;5768;51.476;7.210;2023-01-23T05:31:05;12.53;;;11.17;;
11422;SDS011;5768;51.476;7.210;2023-01-23T05:36:07;13.53;;;11.77;;
11422;SDS011;5768;51.476;7.210;2023-01-23T05:41:09;13.03;;;11.67;;
11422;SDS011;5768;51.476;7.210;2023-01-23T05:46:13;14.03;;;12.40;;
11422;SDS011;5768;51.476;7.210;2023-01-23T05:51:15;13.03;;;11.73;;
11422;SDS011;5768;51.476;7.210;2023-01-23T05:56:18;14.20;;;12.53;;
11422;SDS011;5768;51.476;7.210;2023-01-23T06:01:22;13.37;;;11.93;;
11422;SDS011;5768;51.476;7.210;2023-01-23T06:06:24;14.13;;;12.00;;
11422;SDS011;5768;51.476;7.210;2023-01-23T06:11:26;13.37;;;11.97;;
11422;SDS011;5768;51.476;7.210;2023-01-23T06:16:30;12.80;;;11.43;;
11422;SDS011;5768;51.476;7.210;2023-01-23T06:21:32;13.20;;;11.80;;
11422;SDS011;5768;51.476;7.210;2023-01-23T06:26:34;17.10;;;15.30;;
11422;SDS011;5768;51.476;7.210;2023-01-23T06:31:38;15.97;;;14.30;;
11422;SDS011;5768;51.476;7.210;2023-01-23T06:36:40;13.73;;;12.27;;
11422;SDS011;5768;51.476;7.210;2023-01-23T06:41:42;13.97;;;12.47;;
11422;SDS011;5768;51.476;7.210;2023-01-23T06:46:46;15.17;;;13.40;;
11422;SDS011;5768;51.476;7.210;2023-01-23T06:51:48;14.97;;;13.03;;
11422;SDS011;5768;51.476;7.210;2023-01-23T06:56:50;14.90;;;13.30;;
11422;SDS011;5768;51.476;7.210;2023-01-23T07:01:54;14.07;;;12.53;;
11422;SDS011;5768;51.476;7.210;2023-01-23T07:06:59;14.83;;;13.33;;
11422;SDS011;5768;51.476;7.210;2023-01-23T07:12:11;14.57;;;12.93;;
11422;SDS011;5768;51.476;7.210;2023-01-23T07:17:14;16.43;;;13.50;;
11422;SDS011;5768;51.476;7.210;2023-01-23T07:22:16;15.20;;;13.60;;
11422;SDS011;5768;51.476;7.210;2023-01-23T07:27:20;15.37;;;13.30;;
11422;SDS011;5768;51.476;7.210;2023-01-23T07:32:23;14.40;;;12.87;;
11422;SDS011;5768;51.476;7.210;2023-01-23T07:37:25;13.67;;;12.23;;
11422;SDS011;5768;51.476;7.210;2023-01-23T07:42:27;14.73;;;13.10;;
11422;SDS011;5768;51.476;7.210;2023-01-23T07:47:31;13.53;;;11.93;;
11422;SDS011;5768;51.476;7.210;2023-01-23T07:52:33;15.07;;;12.43;;
11422;SDS011;5768;51.476;7.210;2023-01-23T07:57:36;14.07;;;11.73;;
11422;SDS011;5768;51.476;7.210;2023-01-23T08:02:39;14.27;;;12.03;;
11422;SDS011;5768;51.476;7.210;2023-01-23T08:07:42;14.37;;;12.27;;
11422;SDS011;5768;51.476;7.210;2023-01-23T08:12:44;14.13;;;12.63;;
11422;SDS011;5768;51.476;7.210;2023-01-23T08:17:48;13.80;;;11.70;;
11422;SDS011;5768;51.476;7.210;2023-01-23T08:22:50;14.20;;;12.03;;
11422;SDS011;5768;51.476;7.210;2023-01-23T08:27:52;13.63;;;11.60;;
11422;SDS011;5768;51.476;7.210;2023-01-23T08:32:56;11.50;;;10.37;;
11422;SDS011;5768;51.476;7.210;2023-01-23T08:37:58;11.93;;;10.60;;
11422;SDS011;5768;51.476;7.210;2023-01-23T08:43:01;12.60;;;10.50;;
11422;SDS011;5768;51.476;7.210;2023-01-23T08:48:05;11.03;;;9.90;;
11422;SDS011;5768;51.476;7.210;2023-01-23T08:53:07;11.43;;;10.23;;
11422;SDS011;5768;51.476;7.210;2023-01-23T08:58:10;10.23;;;9.23;;
11422;SDS011;5768;51.476;7.210;2023-01-23T09:03:14;11.47;;;9.77;;
11422;SDS011;5768;51.476;7.210;2023-01-23T09:08:16;11.47;;;9.47;;
11422;SDS011;5768;51.476;7.210;2023-01-23T09:13:18;10.13;;;9.13;;
11422;SDS011;5768;51.476;7.210;2023-01-23T09:18:22;9.90;;;8.90;;
11422;SDS011;5768;51.476;7.210;2023-01-23T09:23:25;10.67;;;9.33;;
11422;SDS011;5768;51.476;7.210;2023-01-23T09:28:30;9.67;;;8.67;;
11422;SDS011;5768;51.476;7.210;2023-01-23T09:33:34;10.30;;;9.20;;
11422;SDS011;5768;51.476;7.210;2023-01-23T09:38:37;10.10;;;9.10;;
11422;SDS011;5768;51.476;7.210;2023-01-23T09:43:41;9.67;;;8.67;;
11422;SDS011;5768;51.476;7.210;2023-01-23T09:48:54;9.27;;;8.37;;
11422;SDS011;5768;51.476;7.210;2023-01-23T09:54:06;9.77;;;8.87;;
11422;SDS011;5768;51.476;7.210;2023-01-23T09:59:26;10.47;;;9.00;;
11422;SDS011;5768;51.476;7.210;2023-01-23T10:04:39;9.90;;;8.87;;
11422;SDS011;5768;51.476;7.210;2023-01-23T10:09:44;9.80;;;8.80;;
11422;SDS011;5768;51.476;7.210;2023-01-23T10:15:06;10.17;;;8.07;;
11422;SDS011;5768;51.476;7.210;2023-01-23T10:20:37;9.23;;;8.17;;
11422;SDS011;5768;51.476;7.210;2023-01-23T10:25:51;9.77;;;8.77;;
11422;SDS011;5768;51.476;7.210;2023-01-23T10:30:55;8.87;;;7.97;;
11422;SDS011;5768;51.476;7.210;2023-01-23T10:36:03;9.83;;;8.83;;
11422;SDS011;5768;51.476;7.210;2023-01-23T10:41:19;8.70;;;7.90;;
11422;SDS011;5768;51.476;7.210;2023-01-23T10:46:22;8.83;;;7.60;;
11422;SDS011;5768;51.476;7.210;2023-01-23T10:51:41;8.23;;;7.43;;
11422;SDS011;5768;51.476;7.210;2023-01-23T10:56:49;8.60;;;7.13;;
11422;SDS011;5768;51.476;7.210;2023-01-23T11:01:58;7.10;;;6.43;;
11422;SDS011;5768;51.476;7.210;2023-01-23T11:07:23;7.17;;;6.47;;
11422;SDS011;5768;51.476;7.210;2023-01-23T11:12:28;6.83;;;6.23;;
11422;SDS011;5768;51.476;7.210;2023-01-23T11:17:33;7.30;;;6.60;;
11422;SDS011;5768;51.476;7.210;2023-01-23T11:22:37;7.37;;;6.67;;
11422;SDS011;5768;51.476;7.210;2023-01-23T11:27:41;6.87;;;6.17;;
11422;SDS011;5768;51.476;7.210;2023-01-23T11:32:59;8.50;;;7.10;;
11422;SDS011;5768;51.476;7.210;2023-01-23T11:38:16;7.50;;;6.80;;
11422;SDS011;5768;51.476;7.210;2023-01-23T11:43:24;8.07;;;7.27;;
11422;SDS011;5768;51.476;7.210;2023-01-23T11:48:30;7.73;;;6.97;;
11422;SDS011;5768;51.476;7.210;2023-01-23T11:53:56;8.50;;;7.63;;
11422;SDS011;5768;51.476;7.210;2023-01-23T11:59:38;8.73;;;7.83;;
11422;SDS011;5768;51.476;7.210;2023-01-23T12:04:57;9.53;;;8.53;;
11422;SDS011;5768;51.476;7.210;2023-01-23T12:10:19;9.37;;;8.27;;
11422;SDS011;5768;51.476;7.210;2023-01-23T12:15:34;9.73;;;8.83;;
11422;SDS011;5768;51.476;7.210;2023-01-23T12:20:53;9.90;;;8.90;;
11422;SDS011;5768;51.476;7.210;2023-01-23T12:26:10;27.87;;;22.03;;
11422;SDS011;5768;51.476;7.210;2023-01-23T12:31:25;10.23;;;9.23;;
11422;SDS011;5768;51.476;7.210;2023-01-23T12:36:57;9.33;;;8.43;;
11422;SDS011;5768;51.476;7.210;2023-01-23T12:42:24;9.53;;;8.63;;
11422;SDS011;5768;51.476;7.210;2023-01-23T12:47:33;10.80;;;8.90;;
11422;SDS011;5768;51.476;7.210;2023-01-23T12:52:44;9.23;;;8.33;;
11422;SDS011;5768;51.476;7.210;2023-01-23T12:57:55;10.07;;;9.03;;
11422;SDS011;5768;51.476;7.210;2023-01-23T13:03:05;9.83;;;8.80;;
11422;SDS011;5768;51.476;7.210;2023-01-23T13:08:41;9.30;;;8.40;;
11422;SDS011;5768;51.476;7.210;2023-01-23T13:13:57;9.43;;;8.40;;
11422;SDS011;5768;51.476;7.210;2023-01-23T13:18:59;11.03;;;9.07;;
11422;SDS011;5768;51.476;7.210;2023-01-23T13:24:42;9.33;;;8.40;;
11422;SDS011;5768;51.476;7.210;2023-01-23T13:35:55;12.23;;;10.00;;
11422;SDS011;5768;51.476;7.210;2023-01-23T13:41:28;10.23;;;8.93;;
11422;SDS011;5768;51.476;7.210;2023-01-23T13:46:39;9.47;;;8.57;;
11422;SDS011;5768;51.476;7.210;2023-01-23T13:51:53;9.60;;;8.33;;
11422;SDS011;5768;51.476;7.210;2023-01-23T13:57:00;9.00;;;8.10;;
11422;SDS011;5768;51.476;7.210;2023-01-23T14:02:14;9.53;;;8.57;;
11422;SDS011;5768;51.476;7.210;2023-01-23T14:07:42;10.80;;;9.30;;
11422;SDS011;5768;51.476;7.210;2023-01-23T14:12:48;9.00;;;8.10;;
11422;SDS011;5768;51.476;7.210;2023-01-23T14:17:53;9.10;;;8.20;;
11422;SDS011;5768;51.476;7.210;2023-01-23T14:22:56;8.73;;;7.93;;
11422;SDS011;5768;51.476;7.210;2023-01-23T14:28:01;8.70;;;7.83;;
11422;SDS011;5768;51.476;7.210;2023-01-23T14:33:10;10.07;;;9.07;;
11422;SDS011;5768;51.476;7.210;2023-01-23T14:38:19;9.03;;;8.13;;
11422;SDS011;5768;51.476;7.210;2023-01-23T14:43:29;8.27;;;7.47;;
11422;SDS011;5768;51.476;7.210;2023-01-23T14:48:37;8.13;;;7.37;;
11422;SDS011;5768;51.476;7.210;2023-01-23T14:53:49;9.20;;;8.13;;
11422;SDS011;5768;51.476;7.210;2023-01-23T14:58:55;7.93;;;7.17;;
11422;SDS011;5768;51.476;7.210;2023-01-23T15:04:03;8.77;;;7.87;;
11422;SDS011;5768;51.476;7.210;2023-01-23T15:09:21;7.63;;;6.87;;
11422;SDS011;5768;51.476;7.210;2023-01-23T15:14:33;7.03;;;6.33;;
11422;SDS011;5768;51.476;7.210;2023-01-23T15:19:40;8.03;;;7.23;;
11422;SDS011;5768;51.476;7.210;2023-01-23T15:24:42;9.10;;;8.20;;
11422;SDS011;5768;51.476;7.210;2023-01-23T15:29:45;8.50;;;7.60;;
11422;SDS011;5768;51.476;7.210;2023-01-23T15:34:52;8.30;;;7.50;;
11422;SDS011;5768;51.476;7.210;2023-01-23T15:39:57;8.20;;;7.40;;
11422;SDS011;5768;51.476;7.210;2023-01-23T15:45:05;7.70;;;6.90;;
11422;SDS011;5768;51.476;7.210;2023-01-23T15:50:15;7.80;;;7.10;;
11422;SDS011;5768;51.476;7.210;2023-01-23T15:55:18;8.03;;;7.20;;
11422;SDS011;5768;51.476;7.210;2023-01-23T16:00:24;9.30;;;7.77;;
11422;SDS011;5768;51.476;7.210;2023-01-23T16:05:32;8.50;;;7.70;;
11422;SDS011;5768;51.476;7.210;2023-01-23T16:10:36;8.30;;;7.50;;
11422;SDS011;5768;51.476;7.210;2023-01-23T16:15:40;8.80;;;8.00;;
11422;SDS011;5768;51.476;7.210;2023-01-23T16:20:44;9.10;;;8.20;;
11422;SDS011;5768;51.476;7.210;2023-01-23T16:25:47;8.67;;;7.87;;
11422;SDS011;5768;51.476;7.210;2023-01-23T16:30:49;7.87;;;7.13;;
11422;SDS011;5768;51.476;7.210;2023-01-23T16:35:54;8.47;;;7.67;;
11422;SDS011;5768;51.476;7.210;2023-01-23T16:40:56;8.60;;;7.80;;
11422;SDS011;5768;51.476;7.210;2023-01-23T16:46:01;8.70;;;7.90;;
11422;SDS011;5768;51.476;7.210;2023-01-23T16:51:05;8.77;;;7.97;;
11422;SDS011;5768;51.476;7.210;2023-01-23T16:56:18;10.80;;;9.70;;
11422;SDS011;5768;51.476;7.210;2023-01-23T17:01:25;9.50;;;8.60;;
11422;SDS011;5768;51.476;7.210;2023-01-23T17:06:30;8.53;;;7.73;;
11422;SDS011;5768;51.476;7.210;2023-01-23T17:11:33;8.93;;;8.13;;
11422;SDS011;5768;51.476;7.210;2023-01-23T17:16:40;9.17;;;8.13;;
11422;SDS011;5768;51.476;7.210;2023-01-23T17:21:46;9.07;;;8.17;;
11422;SDS011;5768;51.476;7.210;2023-01-23T17:26:49;9.63;;;8.73;;
11422;SDS011;5768;51.476;7.210;2023-01-23T17:31:51;9.00;;;8.10;;
11422;SDS011;5768;51.476;7.210;2023-01-23T17:36:55;9.10;;;8.30;;
11422;SDS011;5768;51.476;7.210;2023-01-23T17:41:58;9.30;;;8.40;;
11422;SDS011;5768;51.476;7.210;2023-01-23T17:47:00;9.67;;;8.67;;
11422;SDS011;5768;51.476;7.210;2023-01-23T17:52:03;8.10;;;7.30;;
11422;SDS011;5768;51.476;7.210;2023-01-23T17:57:06;8.90;;;7.90;;
11422;SDS011;5768;51.476;7.210;2023-01-23T18:02:12;8.67;;;7.83;;
11422;SDS011;5768;51.476;7.210;2023-01-23T18:07:28;8.77;;;7.97;;
11422;SDS011;5768;51.476;7.210;2023-01-23T18:12:34;9.10;;;8.27;;
11422;SDS011;5768;51.476;7.210;2023-01-23T18:17:46;9.33;;;8.43;;
11422;SDS011;5768;51.476;7.210;2023-01-23T18:22:58;10.07;;;9.07;;
11422;SDS011;5768;51.476;7.210;2023-01-23T18:28:02;7.83;;;7.13;;
11422;SDS011;5768;51.476;7.210;2023-01-23T18:33:32;9.00;;;8.17;;
11422;SDS011;5768;51.476;7.210;2023-01-23T18:38:56;9.27;;;8.27;;
11422;SDS011;5768;51.476;7.210;2023-01-23T18:44:31;9.20;;;8.30;;
11422;SDS011;5768;51.476;7.210;2023-01-23T18:49:36;7.73;;;6.83;;
11422;SDS011;5768;51.476;7.210;2023-01-23T18:54:41;8.13;;;7.43;;
11422;SDS011;5768;51.476;7.210;2023-01-23T18:59:56;8.70;;;7.90;;
11422;SDS011;5768;51.476;7.210;2023-01-23T19:05:21;9.63;;;8.73;;
11422;SDS011;5768;51.476;7.210;2023-01-23T19:10:30;8.63;;;7.83;;
11422;SDS011;5768;51.476;7.210;2023-01-23T19:15:42;9.87;;;8.93;;
11422;SDS011;5768;51.476;7.210;2023-01-23T19:20:59;10.43;;;8.90;;
11422;SDS011;5768;51.476;7.210;2023-01-23T19:26:13;9.87;;;8.87;;
11422;SDS011;5768;51.476;7.210;2023-01-23T19:31:21;10.40;;;9.40;;
11422;SDS011;5768;51.476;7.210;2023-01-23T19:36:28;9.50;;;8.60;;
11422;SDS011;5768;51.476;7.210;2023-01-23T19:41:35;8.90;;;8.10;;
11422;SDS011;5768;51.476;7.210;2023-01-23T19:46:41;9.53;;;8.63;;
11422;SDS011;5768;51.476;7.210;2023-01-23T19:51:46;9.57;;;8.67;;
11422;SDS011;5768;51.476;7.210;2023-01-23T19:56:48;9.70;;;8.50;;
11422;SDS011;5768;51.476;7.210;2023-01-23T20:01:50;9.50;;;8.60;;
11422;SDS011;5768;51.476;7.210;2023-01-23T20:06:55;9.60;;;8.70;;
11422;SDS011;5768;51.476;7.210;2023-01-23T20:11:57;9.83;;;8.83;;
11422;SDS011;5768;51.476;7.210;2023-01-23T20:16:59;9.10;;;8.20;;
11422;SDS011;5768;51.476;7.210;2023-01-23T20:22:03;9.30;;;8.37;;
11422;SDS011;5768;51.476;7.210;2023-01-23T20:27:05;7.63;;;6.93;;
11422;SDS011;5768;51.476;7.210;2023-01-23T20:32:08;8.50;;;7.43;;
11422;SDS011;5768;51.476;7.210;2023-01-23T20:37:11;8.63;;;7.73;;
11422;SDS011;5768;51.476;7.210;2023-01-23T20:42:13;8.77;;;7.87;;
11422;SDS011;5768;51.476;7.210;2023-01-23T20:47:16;8.57;;;7.77;;
11422;SDS011;5768;51.476;7.210;2023-01-23T20:52:20;9.47;;;8.53;;
11422;SDS011;5768;51.476;7.210;2023-01-23T20:57:54;9.93;;;8.93;;
11422;SDS011;5768;51.476;7.210;2023-01-23T21:03:17;10.20;;;9.20;;
11422;SDS011;5768;51.476;7.210;2023-01-23T21:08:23;10.77;;;9.67;;
11422;SDS011;5768;51.476;7.210;2023-01-23T21:13:31;11.33;;;10.20;;
11422;SDS011;5768;51.476;7.210;2023-01-23T21:18:34;10.33;;;9.30;;
11422;SDS011;5768;51.476;7.210;2023-01-23T21:23:39;10.67;;;9.57;;
11422;SDS011;5768;51.476;7.210;2023-01-23T21:28:41;11.13;;;10.03;;
11422;SDS011;5768;51.476;7.210;2023-01-23T21:33:43;11.23;;;10.07;;
11422;SDS011;5768;51.476;7.210;2023-01-23T21:38:48;10.60;;;9.50;;
11422;SDS011;5768;51.476;7.210;2023-01-23T21:43:51;10.30;;;9.20;;
11422;SDS011;5768;51.476;7.210;2023-01-23T21:48:53;10.80;;;9.80;;
11422;SDS011;5768;51.476;7.210;2023-01-23T21:53:56;9.63;;;8.63;;
11422;SDS011;5768;51.476;7.210;2023-01-23T21:58:58;9.40;;;8.40;;
11422;SDS011;5768;51.476;7.210;2023-01-23T22:04:01;10.00;;;9.00;;
11422;SDS011;5768;51.476;7.210;2023-01-23T22:09:09;9.13;;;8.10;;
11422;SDS011;5768;51.476;7.210;2023-01-23T22:14:17;9.57;;;8.67;;
11422;SDS011;5768;51.476;7.210;2023-01-23T22:19:21;9.40;;;8.47;;
11422;SDS011;5768;51.476;7.210;2023-01-23T22:24:25;8.93;;;8.03;;
11422;SDS011;5768;51.476;7.210;2023-01-23T22:29:27;8.57;;;7.77;;
11422;SDS011;5768;51.476;7.210;2023-01-23T22:34:29;8.47;;;7.67;;
11422;SDS011;5768;51.476;7.210;2023-01-23T22:39:32;8.93;;;8.03;;
11422;SDS011;5768;51.476;7.210;2023-01-23T22:44:35;8.63;;;7.73;;
11422;SDS011;5768;51.476;7.210;2023-01-23T22:49:39;7.93;;;7.13;;
11422;SDS011;5768;51.476;7.210;2023-01-23T22:54:44;8.70;;;7.80;;
11422;SDS011;5768;51.476;7.210;2023-01-23T22:59:46;8.03;;;7.23;;
11422;SDS011;5768;51.476;7.210;2023-01-23T23:04:48;8.33;;;7.53;;
11422;SDS011;5768;51.476;7.210;2023-01-23T23:09:52;7.83;;;6.97;;
11422;SDS011;5768;51.476;7.210;2023-01-23T23:14:54;8.60;;;7.80;;
11422;SDS011;5768;51.476;7.210;2023-01-23T23:19:56;8.00;;;7.20;;
11422;SDS011;5768;51.476;7.210;2023-01-23T23:24:59;8.73;;;7.83;;
11422;SDS011;5768;51.476;7.210;2023-01-23T23:30:01;8.63;;;7.83;;
11422;SDS011;5768;51.476;7.210;2023-01-23T23:35:04;8.83;;;7.83;;
11422;SDS011;5768;51.476;7.210;2023-01-23T23:40:10;8.57;;;7.77;;
11422;SDS011;5768;51.476;7.210;2023-01-23T23:45:12;8.33;;;7.47;;
11422;SDS011;5768;51.476;7.210;2023-01-23T23:50:15;8.40;;;7.60;;
11422;SDS011;5768;51.476;7.210;2023-01-23T23:55:19;8.53;;;7.73;;
